Time;durP1;ratioP1;P1;durP2;ratioP2;P2;SDS_P1;SDS_P2;PMS_P1;PMS_P2;Temp;Humidity;BMP_temperature;BMP_pressure;BME280_temperature;BME280_humidity;BME280_pressure;Samples;Min_cycle;Max_cycle;Signal;HPM_P1;HPM_P2
2021/07/16 00:01:22;;;;;;;4.93;4.53;;;;;;;21.94;68.42;100715.81;5028974;28;20025;-46
2021/07/16 00:03:47;;;;;;;4.32;3.97;;;;;;;21.94;68.45;100723.84;5033714;28;20402;-45
2021/07/16 00:06:12;;;;;;;4.80;4.32;;;;;;;21.94;68.29;100720.31;5022218;28;20033;-45
2021/07/16 00:08:38;;;;;;;4.78;4.38;;;;;;;21.94;68.46;100728.38;5023843;28;20068;-46
2021/07/16 00:11:03;;;;;;;4.75;4.35;;;;;;;21.94;68.55;100741.81;5028117;28;20486;-45
2021/07/16 00:13:28;;;;;;;4.40;4.10;;;;;;;21.94;68.46;100736.44;5022228;28;20045;-46
2021/07/16 00:15:54;;;;;;;4.80;4.35;;;;;;;21.94;68.52;100736.44;5024616;28;20034;-46
2021/07/16 00:18:19;;;;;;;4.78;4.38;;;;;;;21.92;68.27;100737.41;5022755;28;20041;-47
2021/07/16 00:20:44;;;;;;;4.43;4.03;;;;;;;21.91;68.46;100732.94;5023588;28;20026;-46
2021/07/16 00:23:11;;;;;;;4.47;4.18;;;;;;;21.90;68.44;100733.91;5015156;28;20029;-47
2021/07/16 00:25:36;;;;;;;4.85;4.55;;;;;;;21.90;68.13;100736.59;5021299;28;20091;-46
2021/07/16 00:28:02;;;;;;;4.70;4.40;;;;;;;21.90;68.41;100743.78;5025205;28;20104;-47
2021/07/16 00:30:27;;;;;;;4.40;4.10;;;;;;;21.90;68.29;100741.97;5020136;28;20060;-47
2021/07/16 00:32:52;;;;;;;4.38;3.95;;;;;;;21.90;68.33;100735.72;5021360;28;20025;-47
2021/07/16 00:35:18;;;;;;;4.30;4.00;;;;;;;21.89;68.29;100736.69;5018862;28;20048;-47
2021/07/16 00:37:43;;;;;;;4.28;3.97;;;;;;;21.89;68.48;100736.69;5019488;28;20025;-47
2021/07/16 00:40:10;;;;;;;4.47;4.07;;;;;;;21.88;68.34;100734.97;5016237;28;20395;-47
2021/07/16 00:42:36;;;;;;;4.32;4.03;;;;;;;21.87;68.33;100739.44;5017295;28;20030;-46
2021/07/16 00:45:02;;;;;;;4.00;3.70;;;;;;;21.86;68.51;100735.03;5018816;28;20053;-47
2021/07/16 00:47:28;;;;;;;4.35;4.05;;;;;;;21.87;68.26;100735.91;5024671;28;20026;-47
2021/07/16 00:49:53;;;;;;;4.20;3.97;;;;;;;21.87;68.37;100735.91;5020011;28;20025;-47
2021/07/16 00:52:20;;;;;;;4.43;4.13;;;;;;;21.86;68.47;100747.59;5016889;28;20025;-47
2021/07/16 00:54:46;;;;;;;4.40;4.03;;;;;;;21.86;68.36;100748.47;5022898;28;20042;-47
2021/07/16 00:57:11;;;;;;;4.20;3.90;;;;;;;21.85;68.37;100746.75;5017809;28;20018;-47
2021/07/16 00:59:37;;;;;;;4.22;3.83;;;;;;;21.84;68.29;100744.97;5022008;28;20038;-47
2021/07/16 01:02:02;;;;;;;4.20;3.80;;;;;;;21.85;68.22;100738.69;5015715;28;20060;-47
2021/07/16 01:04:28;;;;;;;3.58;3.28;;;;;;;21.84;68.72;100744.13;5018837;28;20454;-46
2021/07/16 01:06:54;;;;;;;4.25;3.95;;;;;;;21.84;68.42;100736.09;5018923;28;20463;-47
2021/07/16 01:09:20;;;;;;;4.70;4.38;;;;;;;21.83;68.41;100743.25;5019062;28;20542;-47
2021/07/16 01:11:46;;;;;;;4.13;3.83;;;;;;;21.83;68.58;100743.25;5023177;28;20113;-47
2021/07/16 01:14:12;;;;;;;4.45;4.05;;;;;;;21.82;68.32;100741.53;5015757;28;20091;-47
2021/07/16 01:16:37;;;;;;;4.10;3.80;;;;;;;21.82;68.38;100743.34;5021176;28;20638;-46
2021/07/16 01:19:03;;;;;;;3.55;3.25;;;;;;;21.81;68.35;100739.81;5017052;28;20022;-46
2021/07/16 01:21:32;;;;;;;3.95;3.53;;;;;;;21.80;68.41;100735.38;5028532;28;20107;-46
2021/07/16 01:23:57;;;;;;;4.40;4.10;;;;;;;21.80;68.29;100743.41;5028756;28;20108;-47
2021/07/16 01:26:23;;;;;;;4.18;3.85;;;;;;;21.80;68.41;100743.41;5022614;28;20061;-46
2021/07/16 01:28:50;;;;;;;3.78;3.58;;;;;;;21.79;68.29;100742.59;5023872;28;20025;-46
2021/07/16 01:31:16;;;;;;;3.92;3.63;;;;;;;21.79;68.42;100755.13;5024345;28;20044;-46
2021/07/16 01:33:41;;;;;;;4.25;3.95;;;;;;;21.78;68.39;100745.34;5026567;28;20038;-47
2021/07/16 01:36:07;;;;;;;4.10;3.47;;;;;;;21.76;68.34;100740.06;5018918;28;20464;-45
2021/07/16 01:38:32;;;;;;;4.00;3.70;;;;;;;21.77;68.48;100748.97;5021142;28;20666;-49
2021/07/16 01:40:58;;;;;;;3.83;3.53;;;;;;;21.76;68.32;100749.91;5019347;28;20025;-45
2021/07/16 01:43:25;;;;;;;3.70;3.50;;;;;;;21.76;68.29;100753.47;5028996;28;20044;-48
2021/07/16 01:45:50;;;;;;;4.32;3.92;;;;;;;21.75;68.33;100745.50;5019381;28;20030;-47
2021/07/16 01:48:16;;;;;;;3.67;3.38;;;;;;;21.75;68.27;100750.88;5019768;28;20029;-47
2021/07/16 01:50:45;;;;;;;3.80;3.50;;;;;;;21.74;68.24;100755.38;5017626;28;20026;-46
2021/07/16 01:53:12;;;;;;;4.10;3.80;;;;;;;21.73;68.44;100750.03;5021114;28;20028;-47
2021/07/16 01:55:38;;;;;;;4.07;3.78;;;;;;;21.72;68.18;100751.88;5018514;28;20391;-47
2021/07/16 01:58:06;;;;;;;3.85;3.55;;;;;;;21.73;68.23;100753.63;5020609;28;20025;-47
2021/07/16 02:00:34;;;;;;;3.58;3.30;;;;;;;21.72;68.28;100756.38;5017215;28;20013;-47
2021/07/16 02:03:04;;;;;;;3.40;3.20;;;;;;;21.73;68.18;100760.78;4995715;28;20036;-47
2021/07/16 02:05:30;;;;;;;4.03;3.73;;;;;;;21.72;68.15;100761.75;5023078;28;20029;-47
2021/07/16 02:08:07;;;;;;;4.00;3.70;;;;;;;21.71;68.13;100758.19;5017525;28;20029;-47
2021/07/16 02:10:33;;;;;;;4.03;3.72;;;;;;;21.70;68.25;100759.16;5013342;28;20018;-47
2021/07/16 02:12:59;;;;;;;3.55;3.28;;;;;;;21.70;68.33;100763.66;5013781;28;20120;-47
2021/07/16 02:15:28;;;;;;;3.60;3.40;;;;;;;21.69;68.29;100761.91;5019842;28;20105;-47
2021/07/16 02:17:54;;;;;;;4.38;4.07;;;;;;;21.69;68.29;100767.28;5017111;28;20132;-47
2021/07/16 02:20:27;;;;;;;3.65;3.35;;;;;;;21.68;68.11;100771.78;5025166;28;20041;-47
2021/07/16 02:22:54;;;;;;;3.20;3.00;;;;;;;21.67;68.15;100778.09;5014508;28;20037;-47
2021/07/16 02:25:21;;;;;;;3.70;3.40;;;;;;;21.65;68.15;100767.44;5017959;28;20025;-47
2021/07/16 02:27:49;;;;;;;3.63;3.42;;;;;;;21.67;68.22;100770.03;5018188;28;20029;-47
2021/07/16 02:30:15;;;;;;;3.92;3.63;;;;;;;21.65;67.98;100772.81;5013613;28;20026;-47
2021/07/16 02:32:41;;;;;;;3.63;3.33;;;;;;;21.65;68.20;100764.75;5020985;28;20022;-47
2021/07/16 02:35:08;;;;;;;3.47;3.22;;;;;;;21.65;68.11;100778.16;5017180;28;20033;-47
2021/07/16 02:37:34;;;;;;;3.55;3.22;;;;;;;21.64;67.98;100779.13;5023789;28;20029;-47
2021/07/16 02:40:00;;;;;;;3.10;2.90;;;;;;;21.64;68.17;100773.75;5020063;28;20026;-48
2021/07/16 02:42:25;;;;;;;4.20;3.80;;;;;;;21.63;68.10;100777.41;5021713;28;20030;-48
2021/07/16 02:44:51;;;;;;;3.50;2.92;;;;;;;21.63;68.00;100776.53;5016509;28;20026;-47
2021/07/16 02:47:16;;;;;;;3.40;3.10;;;;;;;21.62;67.99;100766.75;5018098;28;20053;-47
2021/07/16 02:49:41;;;;;;;3.38;3.17;;;;;;;21.62;68.06;100766.75;5022324;28;20022;-47
2021/07/16 02:52:07;;;;;;;2.92;2.70;;;;;;;21.61;68.15;100757.81;5022662;28;20034;-47
2021/07/16 02:54:32;;;;;;;3.42;3.22;;;;;;;21.61;68.14;100755.13;5021924;28;20025;-46
2021/07/16 02:56:57;;;;;;;3.67;3.38;;;;;;;21.60;67.97;100745.38;5017601;28;20034;-47
2021/07/16 02:59:23;;;;;;;3.88;3.60;;;;;;;21.60;68.06;100763.28;5018826;28;20079;-46
2021/07/16 03:01:53;;;;;;;3.90;3.47;;;;;;;21.60;68.00;100761.47;5030159;28;20013;-46
2021/07/16 03:04:18;;;;;;;3.90;3.53;;;;;;;21.59;68.02;100766.91;5016089;28;20045;-48
2021/07/16 03:06:44;;;;;;;3.75;3.35;;;;;;;21.58;68.15;100760.69;5017803;28;20475;-47
2021/07/16 03:09:09;;;;;;;3.53;3.22;;;;;;;21.58;68.08;100776.78;5020126;28;20044;-45
2021/07/16 03:11:35;;;;;;;3.85;3.55;;;;;;;21.58;68.06;100779.47;5014953;28;20092;-47
2021/07/16 03:14:01;;;;;;;4.10;3.80;;;;;;;21.59;67.97;100770.47;5019044;28;20386;-47
2021/07/16 03:16:26;;;;;;;3.33;3.13;;;;;;;21.59;67.86;100756.19;5021836;28;20013;-48
2021/07/16 03:18:51;;;;;;;4.55;3.53;;;;;;;21.58;68.11;100762.50;5018898;28;20092;-47
2021/07/16 03:21:17;;;;;;;3.53;3.33;;;;;;;21.57;67.96;100756.25;5019472;28;20018;-48
2021/07/16 03:23:42;;;;;;;3.75;3.47;;;;;;;21.56;68.14;100750.97;5018341;28;20491;-47
2021/07/16 03:26:09;;;;;;;4.10;3.65;;;;;;;21.57;68.07;100758.94;5020434;28;20030;-47
2021/07/16 03:28:34;;;;;;;4.57;4.28;;;;;;;21.55;68.14;100760.84;5023240;28;20124;-47
2021/07/16 03:31:00;;;;;;;9.60;6.45;;;;;;;21.56;68.02;100765.25;5024227;28;20138;-47
2021/07/16 03:33:26;;;;;;;7.07;6.38;;;;;;;21.57;67.92;100775.03;5027793;28;20057;-47
2021/07/16 03:35:51;;;;;;;7.85;6.88;;;;;;;21.57;68.25;100767.00;5021090;28;20060;-47
2021/07/16 03:38:16;;;;;;;9.55;7.60;;;;;;;21.55;68.37;100771.59;5022729;28;20029;-47
2021/07/16 03:40:42;;;;;;;8.15;7.25;;;;;;;21.53;68.13;100773.47;5024577;28;20070;-47
2021/07/16 03:43:07;;;;;;;9.63;7.60;;;;;;;21.53;68.43;100778.84;5022460;28;20021;-47
2021/07/16 03:45:33;;;;;;;10.60;7.68;;;;;;;21.53;68.42;100776.16;5020102;28;20033;-48
2021/07/16 03:47:58;;;;;;;11.40;9.50;;;;;;;21.53;68.44;100781.53;5015830;28;20075;-47
2021/07/16 03:50:23;;;;;;;9.00;7.53;;;;;;;21.54;68.56;100780.56;5021192;28;20025;-47
2021/07/16 03:52:50;;;;;;;10.23;8.02;;;;;;;21.52;68.49;100779.81;5024707;28;20099;-47
2021/07/16 03:55:16;;;;;;;12.98;9.25;;;;;;;21.52;68.45;100777.13;5018590;28;20025;-48
2021/07/16 03:57:43;;;;;;;12.02;9.70;;;;;;;21.51;68.75;100778.06;5025095;28;20437;-46
2021/07/16 04:00:09;;;;;;;15.35;10.70;;;;;;;21.50;68.83;100776.31;5020033;28;20025;-48
2021/07/16 04:02:35;;;;;;;11.20;10.02;;;;;;;21.50;68.88;100784.38;5018972;28;20491;-48
2021/07/16 04:05:00;;;;;;;13.48;10.48;;;;;;;21.50;68.98;100776.31;5019838;28;20049;-47
2021/07/16 04:07:28;;;;;;;14.63;10.82;;;;;;;21.48;69.05;100772.88;5017410;28;20135;-47
2021/07/16 04:09:55;;;;;;;14.25;11.23;;;;;;;21.49;69.09;100774.59;5018878;28;20021;-47
2021/07/16 04:12:20;;;;;;;14.10;10.63;;;;;;;21.49;68.66;100767.41;5018811;28;20037;-49
2021/07/16 04:14:48;;;;;;;15.82;11.73;;;;;;;21.49;69.10;100779.97;5023085;28;20440;-47
2021/07/16 04:17:24;;;;;;;14.70;11.10;;;;;;;21.50;69.38;100789.72;5016944;28;20388;-47
2021/07/16 04:19:51;;;;;;;12.20;10.18;;;;;;;21.50;68.99;100784.38;5021938;28;20072;-48
2021/07/16 04:22:17;;;;;;;16.60;12.43;;;;;;;21.47;69.37;100789.91;5019532;28;20080;-46
2021/07/16 04:24:43;;;;;;;15.82;12.60;;;;;;;21.48;69.50;100794.34;5023624;28;20021;-48
2021/07/16 04:27:09;;;;;;;15.05;11.80;;;;;;;21.47;69.54;100784.56;5020080;28;20112;-46
2021/07/16 04:29:35;;;;;;;16.13;11.48;;;;;;;21.47;69.86;100789.91;5016178;28;20044;-47
2021/07/16 04:32:02;;;;;;;16.25;13.02;;;;;;;21.47;69.88;100787.25;5018334;28;20038;-48
2021/07/16 04:34:31;;;;;;;18.70;12.73;;;;;;;21.46;69.46;100783.69;5016673;28;20423;-49
2021/07/16 04:36:57;;;;;;;18.75;14.60;;;;;;;21.44;70.38;100782.03;5014755;28;20022;-47
2021/07/16 04:39:22;;;;;;;17.67;13.63;;;;;;;21.46;69.62;100786.38;5016990;28;21402;-47
2021/07/16 04:41:48;;;;;;;18.88;12.52;;;;;;;21.47;69.69;100790.78;5022103;28;20051;-45
2021/07/16 04:44:13;;;;;;;18.40;13.70;;;;;;;21.48;70.08;100791.66;5021744;28;20026;-49
2021/07/16 04:46:38;;;;;;;21.27;14.95;;;;;;;21.44;69.96;100790.94;5020403;28;20029;-48
2021/07/16 04:49:04;;;;;;;24.65;15.30;;;;;;;21.45;70.52;100792.69;5016936;28;21837;-48
2021/07/16 04:51:31;;;;;;;17.20;13.35;;;;;;;21.44;70.10;100787.41;5017134;28;20056;-49
2021/07/16 04:53:57;;;;;;;21.52;14.68;;;;;;;21.43;70.27;100799.06;5024878;28;20032;-47
2021/07/16 04:56:24;;;;;;;20.35;14.18;;;;;;;21.44;70.34;100800.81;5018428;28;20188;-48
2021/07/16 04:58:49;;;;;;;20.55;14.35;;;;;;;21.45;70.37;100792.69;5024151;28;20537;-46
2021/07/16 05:01:21;;;;;;;17.48;13.13;;;;;;;21.44;70.10;100795.44;5020768;28;20053;-46
2021/07/16 05:03:47;;;;;;;22.80;17.88;;;;;;;21.41;70.49;100802.69;5021413;28;20037;-47
2021/07/16 05:06:12;;;;;;;22.65;16.17;;;;;;;21.40;70.64;100811.69;5015464;28;20021;-45
2021/07/16 05:08:38;;;;;;;22.88;16.98;;;;;;;21.41;70.40;100810.75;5016439;28;20032;-48
2021/07/16 05:11:04;;;;;;;21.88;15.52;;;;;;;21.44;70.43;100814.22;5018326;28;20044;-48
2021/07/16 05:13:29;;;;;;;25.20;17.48;;;;;;;21.40;70.70;100817.06;5019422;28;20472;-46
2021/07/16 05:15:55;;;;;;;21.45;16.77;;;;;;;21.41;70.68;100823.31;5020223;28;20059;-48
2021/07/16 05:18:20;;;;;;;23.17;16.67;;;;;;;21.42;70.55;100825.03;5019235;28;20037;-47
2021/07/16 05:20:45;;;;;;;23.77;17.17;;;;;;;21.41;71.12;100829.53;5015221;28;20376;-49
2021/07/16 05:23:11;;;;;;;26.30;18.23;;;;;;;21.42;70.90;100835.75;5019054;28;20105;-48
2021/07/16 05:25:36;;;;;;;33.20;21.35;;;;;;;21.40;71.31;100840.31;5016891;28;20397;-46
2021/07/16 05:28:02;;;;;;;28.88;19.15;;;;;;;21.40;71.17;100843.88;5024328;28;20380;-48
2021/07/16 05:30:29;;;;;;;26.60;20.27;;;;;;;21.38;71.31;100851.13;5018517;28;20025;-48
2021/07/16 05:32:54;;;;;;;27.02;19.63;;;;;;;21.39;71.26;100854.69;5025556;28;20049;-48
2021/07/16 05:35:20;;;;;;;24.02;17.05;;;;;;;21.39;71.11;100860.94;5018220;28;20053;-48
2021/07/16 05:37:47;;;;;;;24.90;18.67;;;;;;;21.39;70.97;100869.00;5018659;28;20559;-48
2021/07/16 05:40:13;;;;;;;29.63;20.30;;;;;;;21.39;71.17;100868.09;5016362;28;20109;-47
2021/07/16 05:42:39;;;;;;;26.88;20.23;;;;;;;21.38;71.33;100869.91;5016962;28;20022;-47
2021/07/16 05:45:05;;;;;;;27.10;20.90;;;;;;;21.36;71.37;100871.81;5019857;28;20359;-46
2021/07/16 05:47:30;;;;;;;28.48;19.20;;;;;;;21.38;71.19;100877.13;5022838;28;20026;-47
2021/07/16 05:49:55;;;;;;;24.25;19.27;;;;;;;21.38;71.21;100877.97;5016047;28;20104;-47
2021/07/16 05:52:22;;;;;;;26.48;19.10;;;;;;;21.37;71.19;100875.34;5015236;28;20124;-46
2021/07/16 05:54:48;;;;;;;24.52;18.33;;;;;;;21.35;71.02;100885.31;5027211;28;20053;-45
2021/07/16 05:57:13;;;;;;;28.17;19.42;;;;;;;21.35;71.39;100888.00;5017172;28;20096;-48
2021/07/16 05:59:38;;;;;;;29.27;21.48;;;;;;;21.34;71.56;100876.38;5012820;28;20026;-48
2021/07/16 06:02:04;;;;;;;29.65;20.13;;;;;;;21.34;71.54;100879.06;5019453;28;20079;-48
2021/07/16 06:04:29;;;;;;;24.58;19.52;;;;;;;21.35;71.66;100888.00;5021432;28;20110;-46
2021/07/16 06:06:54;;;;;;;26.95;20.77;;;;;;;21.33;71.44;100888.06;5020656;28;20111;-45
2021/07/16 06:09:20;;;;;;;27.02;19.38;;;;;;;21.35;71.18;100894.25;5011171;28;20033;-47
2021/07/16 06:11:45;;;;;;;23.42;19.05;;;;;;;21.35;70.84;100902.28;5019538;28;20033;-47
2021/07/16 06:14:11;;;;;;;25.48;19.67;;;;;;;21.36;71.15;100901.34;5013720;28;20038;-47
2021/07/16 06:16:36;;;;;;;26.80;19.60;;;;;;;21.34;71.31;100902.38;5021261;28;20116;-47
2021/07/16 06:19:01;;;;;;;24.67;17.98;;;;;;;21.35;71.33;100902.28;5019332;28;20029;-48
2021/07/16 06:21:27;;;;;;;25.05;19.23;;;;;;;21.35;70.86;100909.47;5020112;28;20034;-48
2021/07/16 06:23:52;;;;;;;24.23;18.80;;;;;;;21.34;71.32;100900.53;5014927;28;20040;-48
2021/07/16 06:26:18;;;;;;;21.42;16.95;;;;;;;21.35;70.89;100910.34;5014163;28;20396;-47
2021/07/16 06:28:44;;;;;;;22.75;19.08;;;;;;;21.33;71.13;100917.59;5018331;28;20033;-48
2021/07/16 06:31:09;;;;;;;24.05;18.75;;;;;;;21.33;71.10;100917.59;5014440;28;20072;-47
2021/07/16 06:33:35;;;;;;;25.42;18.52;;;;;;;21.33;71.57;100927.44;5018304;28;20297;-47
2021/07/16 06:36:01;;;;;;;23.38;18.63;;;;;;;21.32;71.60;100926.59;5021137;28;20499;-48
2021/07/16 06:38:26;;;;;;;27.05;19.45;;;;;;;21.32;71.71;100933.75;4990732;28;20040;-48
2021/07/16 06:40:51;;;;;;;26.10;20.13;;;;;;;21.32;71.83;100940.00;5017042;28;20028;-47
2021/07/16 06:43:17;;;;;;;27.13;20.85;;;;;;;21.32;71.41;100942.69;5017201;28;20029;-48
2021/07/16 06:45:43;;;;;;;25.52;19.85;;;;;;;21.32;72.01;100945.34;5022836;28;20102;-48
2021/07/16 06:48:08;;;;;;;27.33;20.55;;;;;;;21.32;71.60;100937.31;5023543;28;20403;-47
2021/07/16 06:50:33;;;;;;;24.75;19.15;;;;;;;21.32;71.68;100950.72;5023757;28;20500;-47
2021/07/16 06:52:59;;;;;;;27.63;19.65;;;;;;;21.31;71.79;100951.69;5022780;28;20112;-47
2021/07/16 06:55:24;;;;;;;23.70;18.75;;;;;;;21.30;71.60;100947.22;5024033;28;20033;-48
2021/07/16 06:57:50;;;;;;;25.70;19.33;;;;;;;21.31;71.53;100946.31;5020777;28;20485;-48
2021/07/16 07:00:16;;;;;;;24.67;19.17;;;;;;;21.31;71.73;100961.53;5007373;28;20079;-47
2021/07/16 07:02:41;;;;;;;25.92;20.58;;;;;;;21.29;72.13;100953.56;5024969;28;20049;-47
2021/07/16 07:05:07;;;;;;;28.75;19.90;;;;;;;21.28;71.56;100950.00;5022755;28;20061;-47
2021/07/16 07:07:33;;;;;;;27.02;20.40;;;;;;;21.30;71.82;100959.81;5020887;28;20034;-48
2021/07/16 07:09:58;;;;;;;28.55;20.15;;;;;;;21.31;71.62;100974.94;5030443;28;20048;-48
2021/07/16 07:12:23;;;;;;;23.55;18.35;;;;;;;21.31;71.53;100973.13;5016181;28;20044;-48
2021/07/16 07:14:49;;;;;;;21.85;18.85;;;;;;;21.32;71.32;100973.97;5021054;28;20021;-49
2021/07/16 07:17:14;;;;;;;25.17;18.45;;;;;;;21.31;71.18;100970.44;5017663;28;20022;-48
2021/07/16 07:19:40;;;;;;;22.58;18.08;;;;;;;21.32;71.04;100979.34;5010598;28;20134;-50
2021/07/16 07:22:05;;;;;;;23.95;18.85;;;;;;;21.31;71.52;100973.13;5018163;28;20799;-49
2021/07/16 07:24:30;;;;;;;25.70;18.60;;;;;;;21.31;71.00;100983.88;5021199;28;20044;-48
2021/07/16 07:26:57;;;;;;;24.48;18.30;;;;;;;21.33;71.21;100986.44;5018630;28;20025;-49
2021/07/16 07:29:23;;;;;;;25.02;18.35;;;;;;;21.32;71.10;100990.06;5020741;28;20049;-47
2021/07/16 07:31:49;;;;;;;23.95;18.85;;;;;;;21.30;71.52;100992.00;5025108;28;20029;-47
2021/07/16 07:34:14;;;;;;;24.98;19.52;;;;;;;21.29;71.96;100985.75;5028382;28;20032;-47
2021/07/16 07:36:42;;;;;;;24.25;19.98;;;;;;;21.28;71.34;100987.53;5020868;28;20064;-46
2021/07/16 07:39:07;;;;;;;21.88;18.17;;;;;;;21.30;71.28;100992.00;5024378;28;20079;-47
2021/07/16 07:41:32;;;;;;;24.15;19.45;;;;;;;21.29;71.01;100993.78;5026350;28;20029;-48
2021/07/16 07:43:58;;;;;;;22.88;19.27;;;;;;;21.30;71.06;100997.34;5022557;28;20133;-46
2021/07/16 07:46:24;;;;;;;26.00;20.13;;;;;;;21.28;71.34;100995.59;5011420;28;20049;-46
2021/07/16 07:48:50;;;;;;;23.73;19.90;;;;;;;21.30;71.12;101002.72;5018228;28;20033;-46
2021/07/16 07:51:16;;;;;;;22.98;18.73;;;;;;;21.26;71.67;100992.13;5021701;28;20045;-47
2021/07/16 07:53:42;;;;;;;23.70;17.80;;;;;;;21.25;71.90;101000.25;4999442;28;20025;-47
2021/07/16 07:56:10;;;;;;;42.00;22.05;;;;;;;21.17;73.93;100997.94;5034843;23;20049;-50
2021/07/16 07:58:36;;;;;;;29.45;21.67;;;;;;;21.06;74.88;101003.81;5014668;28;20029;-48
2021/07/16 08:01:01;;;;;;;32.85;22.52;;;;;;;20.94;76.55;101001.75;5025948;28;20024;-48
2021/07/16 08:03:26;;;;;;;29.58;21.55;;;;;;;20.97;76.45;101004.28;5030779;28;20481;-48
2021/07/16 08:05:52;;;;;;;36.65;25.00;;;;;;;20.97;77.08;101013.16;5042411;28;20414;-48
2021/07/16 08:08:20;;;;;;;33.08;24.10;;;;;;;20.94;76.96;101017.81;5033610;28;20029;-48
2021/07/16 08:10:45;;;;;;;32.30;23.23;;;;;;;20.88;77.00;101025.19;5030198;28;21434;-48
2021/07/16 08:13:11;;;;;;;35.70;22.90;;;;;;;20.92;77.17;101011.66;5033021;28;20049;-48
2021/07/16 08:15:42;;;;;;;31.98;23.85;;;;;;;20.92;77.29;101014.34;5036357;28;20024;-48
2021/07/16 08:18:08;;;;;;;32.45;22.00;;;;;;;20.94;77.29;101028.56;5035410;28;20048;-49
2021/07/16 08:20:33;;;;;;;31.13;21.65;;;;;;;20.93;77.78;101035.72;5036004;28;20474;-58
2021/07/16 08:22:58;;;;;;;32.95;24.27;;;;;;;20.88;77.89;101035.03;5035764;28;20025;-49
2021/07/16 08:25:24;;;;;;;31.98;21.35;;;;;;;21.04;77.55;101034.34;5029829;28;20403;-49
2021/07/16 08:27:49;;;;;;;31.15;22.65;;;;;;;21.10;76.82;101028.66;5031868;28;20024;-49
2021/07/16 08:30:15;;;;;;;29.92;22.02;;;;;;;21.12;76.38;101030.34;5032366;28;20116;-49
2021/07/16 08:32:42;;;;;;;27.85;19.83;;;;;;;21.15;76.36;101043.59;5031887;28;20040;-49
2021/07/16 08:35:08;;;;;;;32.72;21.25;;;;;;;21.15;76.17;101037.38;5035742;28;20026;-49
2021/07/16 08:37:34;;;;;;;28.63;20.05;;;;;;;21.16;75.91;101049.84;5027406;28;20098;-50
2021/07/16 08:40:00;;;;;;;26.67;20.77;;;;;;;21.17;75.70;101042.66;5033896;28;20472;-50
2021/07/16 08:42:26;;;;;;;25.88;20.00;;;;;;;21.15;75.29;101043.59;5031551;28;20104;-49
2021/07/16 08:44:52;;;;;;;29.42;20.25;;;;;;;21.18;75.21;101026.50;5023796;28;20049;-49
2021/07/16 08:47:18;;;;;;;26.58;20.35;;;;;;;21.17;75.16;101037.31;5029936;28;20044;-49
2021/07/16 08:49:43;;;;;;;26.88;20.50;;;;;;;21.18;75.06;101041.72;5035248;28;20013;-49
2021/07/16 08:52:09;;;;;;;25.58;19.60;;;;;;;21.17;75.02;101034.63;5030327;28;20090;-49
2021/07/16 08:54:42;;;;;;;26.67;19.13;;;;;;;21.17;74.99;101035.47;5037282;28;20025;-49
2021/07/16 08:57:09;;;;;;;26.25;18.55;;;;;;;21.18;74.67;101044.41;5020754;28;20084;-49
2021/07/16 08:59:34;;;;;;;24.35;18.52;;;;;;;21.18;74.33;101037.25;5032408;28;20469;-49
2021/07/16 09:02:02;;;;;;;22.00;17.95;;;;;;;21.18;74.50;101036.34;5029004;28;20061;-49
2021/07/16 09:04:27;;;;;;;25.25;18.55;;;;;;;21.19;74.41;101030.03;5031579;28;20060;-49
2021/07/16 09:06:57;;;;;;;29.08;18.00;;;;;;;21.17;74.40;101030.09;5031865;28;20119;-49
2021/07/16 09:09:31;;;;;;;23.90;17.83;;;;;;;21.18;74.36;101036.34;5029248;28;20025;-49
2021/07/16 09:11:58;;;;;;;21.40;16.77;;;;;;;21.18;74.49;101031.00;5029937;28;20029;-49
2021/07/16 09:14:30;;;;;;;27.33;18.70;;;;;;;21.15;74.68;101038.22;5033389;28;20112;-49
2021/07/16 09:17:00;;;;;;;23.75;17.83;;;;;;;21.16;74.23;101039.09;5031890;28;20061;-49
2021/07/16 09:19:40;;;;;;;21.20;17.23;;;;;;;21.17;74.25;101045.34;5028228;28;20029;-49
2021/07/16 09:22:20;;;;;;;23.30;17.95;;;;;;;21.17;74.38;101040.00;5030491;28;20368;-49
2021/07/16 09:24:53;;;;;;;22.75;17.63;;;;;;;21.17;74.19;101042.66;5028430;28;20036;-48
2021/07/16 09:27:30;;;;;;;23.27;17.75;;;;;;;21.15;74.41;101048.94;5029897;28;20029;-49
2021/07/16 09:30:09;;;;;;;22.88;17.80;;;;;;;21.17;74.39;101037.31;5029477;28;20025;-49
2021/07/16 09:32:56;;;;;;;25.55;18.20;;;;;;;21.18;74.36;101041.72;5033030;28;20052;-49
2021/07/16 09:35:29;;;;;;;23.77;18.05;;;;;;;21.20;73.88;101040.69;5030589;28;20071;-49
2021/07/16 09:38:05;;;;;;;22.00;17.92;;;;;;;21.18;74.25;101041.72;5034120;28;20502;-49
2021/07/16 09:40:42;;;;;;;21.95;17.60;;;;;;;21.18;74.05;101031.00;5027756;28;20902;-49
2021/07/16 09:43:16;;;;;;;22.80;17.58;;;;;;;21.17;74.23;101035.47;5031448;28;20375;-49
2021/07/16 09:45:50;;;;;;;19.73;16.98;;;;;;;21.17;74.30;101040.00;5027545;28;20032;-49
2021/07/16 09:48:23;;;;;;;24.25;17.15;;;;;;;21.17;73.88;101040.84;5034698;28;20047;-49
2021/07/16 09:50:50;;;;;;;21.05;16.38;;;;;;;21.16;74.44;101049.84;5035138;28;20017;-49
2021/07/16 09:53:22;;;;;;;22.45;17.70;;;;;;;21.17;74.19;101051.56;5036172;28;20025;-49
2021/07/16 09:55:48;;;;;;;19.95;14.23;;;;;;;21.14;74.16;101055.28;5032726;28;20044;-50
2021/07/16 09:58:24;;;;;;;20.85;17.13;;;;;;;21.17;74.13;101061.44;5027473;28;20491;-49
2021/07/16 10:00:53;;;;;;;18.08;15.68;;;;;;;21.15;74.14;101064.19;5023124;28;20013;-49
2021/07/16 10:03:19;;;;;;;21.40;15.20;;;;;;;21.15;74.06;101065.03;5027004;28;20048;-49
2021/07/16 10:05:46;;;;;;;18.08;15.13;;;;;;;21.15;73.98;101065.03;5026242;28;20033;-49
2021/07/16 10:08:16;;;;;;;18.67;15.65;;;;;;;21.16;73.54;101065.94;5031523;28;20396;-49
2021/07/16 10:10:41;;;;;;;18.73;15.57;;;;;;;21.16;73.97;101076.66;5028221;28;20030;-49
2021/07/16 10:13:10;;;;;;;20.60;14.52;;;;;;;21.14;74.44;101074.03;5028762;28;20041;-48
2021/07/16 10:15:36;;;;;;;18.63;14.40;;;;;;;21.15;74.12;101077.59;5033922;28;20391;-49
2021/07/16 10:18:02;;;;;;;16.30;13.45;;;;;;;21.14;73.50;101079.41;5027350;28;20044;-49
2021/07/16 10:20:28;;;;;;;17.48;15.40;;;;;;;21.14;73.11;101076.72;5028381;28;20025;-49
2021/07/16 10:22:54;;;;;;;16.98;14.55;;;;;;;21.15;73.68;101073.09;5022820;28;20029;-49
2021/07/16 10:25:21;;;;;;;18.35;14.82;;;;;;;21.14;73.82;101073.19;5025835;28;20017;-49
2021/07/16 10:27:47;;;;;;;16.45;14.63;;;;;;;21.14;73.63;101084.78;5029495;28;20025;-49
2021/07/16 10:30:25;;;;;;;15.45;13.38;;;;;;;21.14;73.74;101076.72;5032403;28;20090;-49
2021/07/16 10:32:52;;;;;;;20.25;13.63;;;;;;;21.15;73.95;101078.44;5031895;28;20037;-49
2021/07/16 10:35:29;;;;;;;16.73;14.43;;;;;;;21.15;73.43;101078.44;5026126;28;20026;-50
2021/07/16 10:38:00;;;;;;;16.80;14.15;;;;;;;21.15;73.33;101082.97;5026091;28;20098;-48
2021/07/16 10:40:39;;;;;;;15.43;13.77;;;;;;;21.14;73.53;101084.78;5031582;28;20029;-49
2021/07/16 10:43:07;;;;;;;14.85;12.77;;;;;;;21.14;73.33;101089.28;5029131;28;20391;-49
2021/07/16 10:45:39;;;;;;;17.13;13.45;;;;;;;21.14;72.88;101095.50;5028250;28;20052;-49
2021/07/16 10:48:10;;;;;;;15.98;13.68;;;;;;;21.15;72.90;101089.19;5027077;28;20064;-49
2021/07/16 10:50:37;;;;;;;16.45;13.68;;;;;;;21.14;73.28;101092.81;5028794;28;20039;-49
2021/07/16 10:53:03;;;;;;;16.58;13.38;;;;;;;21.14;72.73;101090.13;5029682;28;20034;-49
2021/07/16 10:55:28;;;;;;;16.73;13.65;;;;;;;21.16;73.43;101090.06;5027768;28;20029;-49
2021/07/16 10:57:58;;;;;;;15.10;13.45;;;;;;;21.14;73.78;101079.41;5030622;28;20560;-49
2021/07/16 11:00:36;;;;;;;16.92;13.65;;;;;;;21.13;74.20;101083.03;5013724;28;20025;-49
2021/07/16 11:03:07;;;;;;;14.13;12.35;;;;;;;21.15;73.48;101082.97;5026094;28;20372;-48
2021/07/16 11:05:33;;;;;;;14.02;12.52;;;;;;;21.17;73.01;101082.91;5016275;28;20029;-49
2021/07/16 11:07:59;;;;;;;14.68;13.13;;;;;;;21.18;72.84;101090.88;5028660;28;20029;-49
2021/07/16 11:10:46;;;;;;;14.38;12.88;;;;;;;21.18;73.12;101092.69;5030539;28;20021;-49
2021/07/16 11:13:35;;;;;;;15.32;12.70;;;;;;;21.18;72.87;101084.63;5028747;28;20034;-49